createdAt,value
2022-10-02T00:00:18.603Z,12.86
2022-10-02T00:02:51.612Z,12.91
2022-10-02T00:05:24.182Z,12.93
2022-10-02T00:07:56.791Z,12.85
2022-10-02T00:10:31.100Z,12.75
2022-10-02T00:13:02.609Z,12.77
2022-10-02T00:15:33.064Z,13.01
2022-10-02T00:18:08.389Z,13.27
2022-10-02T00:20:43.739Z,13.45
2022-10-02T00:23:18.654Z,13.61
2022-10-02T00:25:52.667Z,13.63
2022-10-02T00:28:26.083Z,13.43
2022-10-02T00:31:25.901Z,13.28
2022-10-02T00:34:04.721Z,14.18
2022-10-02T00:36:45.457Z,13.91
2022-10-02T00:39:24.717Z,14.33
2022-10-02T00:42:19.908Z,14.37
2022-10-02T00:44:58.594Z,13.99
2022-10-02T00:47:39.586Z,13.84
2022-10-02T00:50:26.625Z,13.79
2022-10-02T00:53:06.867Z,13.88
2022-10-02T00:55:56.900Z,13.44
2022-10-02T00:58:44.008Z,14.37
2022-10-02T01:01:15.747Z,14.50
2022-10-02T01:03:44.839Z,14.11
2022-10-02T01:06:14.078Z,14.27
2022-10-02T01:08:41.738Z,14.15
2022-10-02T01:11:09.507Z,14.22
2022-10-02T01:13:37.065Z,13.96
2022-10-02T01:16:05.730Z,13.86
2022-10-02T01:18:33.365Z,14.60
2022-10-02T01:21:05.278Z,14.17
2022-10-02T01:23:42.211Z,14.10
2022-10-02T01:26:11.295Z,14.29
2022-10-02T01:28:39.034Z,14.31
2022-10-02T01:31:10.149Z,14.01
2022-10-02T01:33:41.521Z,14.04
2022-10-02T01:36:09.554Z,14.26
2022-10-02T01:38:37.836Z,14.52
2022-10-02T01:41:07.457Z,14.47
2022-10-02T01:43:39.452Z,14.56
2022-10-02T01:46:27.833Z,14.75
2022-10-02T01:49:06.671Z,14.97
2022-10-02T01:52:00.250Z,15.07
2022-10-02T01:54:41.576Z,15.12
2022-10-02T01:57:19.860Z,15.56
2022-10-02T02:00:03.208Z,15.67
2022-10-02T02:02:39.360Z,15.54
2022-10-02T02:05:12.343Z,15.55
2022-10-02T02:07:49.681Z,14.87
2022-10-02T02:10:23.803Z,14.69
2022-10-02T02:12:59.874Z,14.70
2022-10-02T02:15:34.431Z,14.36
2022-10-02T02:18:08.768Z,13.97
2022-10-02T02:20:44.545Z,13.76
2022-10-02T02:23:16.367Z,13.79
2022-10-02T02:25:48.708Z,13.83
2022-10-02T02:28:19.564Z,13.86
2022-10-02T02:30:52.197Z,14.09
2022-10-02T02:33:25.212Z,14.16
2022-10-02T02:35:57.444Z,13.69
2022-10-02T02:38:30.176Z,13.31
2022-10-02T02:41:00.885Z,13.28
2022-10-02T02:43:32.171Z,13.27
2022-10-02T02:46:08.090Z,13.23
2022-10-02T02:48:42.887Z,13.23
2022-10-02T02:51:15.370Z,13.14
2022-10-02T02:53:47.883Z,13.25
2022-10-02T02:56:20.557Z,13.24
2022-10-02T02:58:53.884Z,13.35
2022-10-02T03:01:22.887Z,13.09
2022-10-02T03:03:50.436Z,13.21
2022-10-02T03:06:33.308Z,13.11
2022-10-02T03:09:02.918Z,13.31
2022-10-02T03:11:42.868Z,13.50
2022-10-02T03:14:31.145Z,13.69
2022-10-02T03:17:08.760Z,13.31
2022-10-02T03:19:44.027Z,13.31
2022-10-02T03:22:16.574Z,13.47
2022-10-02T03:24:50.623Z,13.80
2022-10-02T03:27:25.767Z,13.63
2022-10-02T03:29:58.774Z,13.06
2022-10-02T03:32:29.371Z,12.67
2022-10-02T03:34:58.085Z,12.42
2022-10-02T03:37:26.314Z,12.65
2022-10-02T03:39:54.115Z,13.32
2022-10-02T03:42:26.245Z,13.48
2022-10-02T03:44:53.775Z,13.34
2022-10-02T03:47:21.281Z,13.24
2022-10-02T03:49:50.260Z,13.32
2022-10-02T03:52:19.676Z,13.32
2022-10-02T03:54:47.308Z,13.11
2022-10-02T03:57:20.579Z,13.06
2022-10-02T03:59:54.934Z,13.06
2022-10-02T04:02:32.328Z,13.36
2022-10-02T04:05:10.864Z,13.24
2022-10-02T04:07:42.825Z,13.27
2022-10-02T04:10:32.000Z,12.77
2022-10-02T04:13:06.180Z,12.94
2022-10-02T04:15:43.192Z,12.99
2022-10-02T04:18:18.431Z,12.74
2022-10-02T04:20:53.367Z,12.65
2022-10-02T04:23:27.748Z,13.00
2022-10-02T04:26:01.460Z,12.68
2022-10-02T04:28:35.646Z,12.72
2022-10-02T04:31:03.670Z,13.09
2022-10-02T04:33:36.386Z,13.40
2022-10-02T04:36:16.844Z,13.20
2022-10-02T04:38:59.024Z,13.27
2022-10-02T04:41:57.866Z,13.09
2022-10-02T04:44:37.762Z,13.28
2022-10-02T04:47:24.183Z,13.18
2022-10-02T04:50:03.276Z,13.42
2022-10-02T04:52:53.868Z,13.10
2022-10-02T04:55:58.284Z,13.28
2022-10-02T04:58:40.319Z,13.04
2022-10-02T05:01:18.532Z,13.11
2022-10-02T05:04:10.736Z,13.17
2022-10-02T05:07:00.763Z,12.99
2022-10-02T05:09:34.268Z,12.76
2022-10-02T05:12:32.231Z,12.92
2022-10-02T05:15:21.615Z,13.43
2022-10-02T05:18:17.980Z,13.24
2022-10-02T05:21:01.149Z,13.42
2022-10-02T05:23:44.564Z,13.15
2022-10-02T05:26:38.977Z,13.57
2022-10-02T05:29:26.072Z,13.49
2022-10-02T05:32:05.795Z,13.27
2022-10-02T05:34:48.105Z,13.52
2022-10-02T05:37:29.171Z,13.65
2022-10-02T05:40:04.325Z,13.65
2022-10-02T05:42:42.310Z,13.76
2022-10-02T05:45:22.630Z,13.61
2022-10-02T05:47:51.751Z,13.72
2022-10-02T05:50:22.505Z,13.87
2022-10-02T05:52:57.174Z,13.78
2022-10-02T05:55:31.541Z,13.89
2022-10-02T05:58:04.848Z,13.95
2022-10-02T06:00:39.893Z,13.89
2022-10-02T06:03:15.441Z,13.77
2022-10-02T06:05:50.107Z,13.84
2022-10-02T06:08:24.655Z,14.07
2022-10-02T06:10:55.111Z,14.12
2022-10-02T06:13:28.464Z,14.08
2022-10-02T06:16:05.000Z,14.16
2022-10-02T06:18:34.870Z,14.19
2022-10-02T06:21:08.649Z,14.08
2022-10-02T06:23:40.578Z,14.19
2022-10-02T06:26:13.864Z,13.81
2022-10-02T06:28:45.250Z,13.71
2022-10-02T06:31:21.162Z,14.01
2022-10-02T06:33:49.107Z,14.26
2022-10-02T06:36:46.807Z,14.40
2022-10-02T06:39:35.368Z,14.52
2022-10-02T06:42:17.538Z,13.76
2022-10-02T06:44:57.745Z,13.57
2022-10-02T06:47:41.028Z,13.79
2022-10-02T06:50:27.480Z,13.34
2022-10-02T06:53:02.663Z,13.93
2022-10-02T06:55:45.307Z,13.91
2022-10-02T06:58:53.032Z,13.90
2022-10-02T07:01:32.549Z,14.18
2022-10-02T07:04:22.897Z,13.82
2022-10-02T07:07:05.787Z,13.77
2022-10-02T07:09:44.074Z,13.85
2022-10-02T07:12:24.841Z,14.08
2022-10-02T07:15:17.199Z,14.28
2022-10-02T07:17:57.315Z,14.31
2022-10-02T07:20:36.455Z,14.07
2022-10-02T07:23:31.695Z,13.75
2022-10-02T07:26:15.865Z,14.05
2022-10-02T07:28:54.033Z,13.97
2022-10-02T07:31:33.391Z,14.39
2022-10-02T07:34:21.072Z,14.76
2022-10-02T07:37:02.375Z,14.79
2022-10-02T07:39:43.836Z,15.18
2022-10-02T07:42:36.477Z,14.73
2022-10-02T07:45:21.079Z,14.65
2022-10-02T07:48:08.971Z,13.86
2022-10-02T07:50:45.846Z,13.77
2022-10-02T07:53:21.605Z,13.53
2022-10-02T07:55:53.181Z,13.71
2022-10-02T07:58:31.135Z,14.36
2022-10-02T08:01:02.367Z,14.14
2022-10-02T08:03:35.809Z,13.69
2022-10-02T08:06:06.398Z,13.31
2022-10-02T08:08:43.836Z,13.46
2022-10-02T08:11:16.837Z,13.26
2022-10-02T08:13:50.460Z,13.46
2022-10-02T08:16:23.367Z,13.43
2022-10-02T08:18:56.463Z,13.28
2022-10-02T08:21:27.088Z,13.07
2022-10-02T08:23:59.924Z,13.38
2022-10-02T08:26:35.413Z,13.64
2022-10-02T08:29:09.108Z,13.62
2022-10-02T08:31:36.717Z,13.66
2022-10-02T08:34:17.464Z,13.47
2022-10-02T08:37:14.381Z,13.49
2022-10-02T08:40:04.646Z,13.77
2022-10-02T08:43:08.401Z,13.72
2022-10-02T08:46:12.221Z,13.82
2022-10-02T08:49:17.989Z,14.32
2022-10-02T08:55:27.038Z,13.89
2022-10-02T08:58:38.376Z,14.05
2022-10-02T09:01:23.961Z,13.60
2022-10-02T09:04:38.171Z,14.04
2022-10-02T09:07:57.741Z,13.91
2022-10-02T09:10:49.797Z,13.85
2022-10-02T09:13:44.582Z,13.67
2022-10-02T09:16:16.221Z,14.19
2022-10-02T09:18:55.148Z,14.22
2022-10-02T09:21:42.279Z,13.80
2022-10-02T09:24:49.241Z,13.87
2022-10-02T09:27:47.298Z,14.29
2022-10-02T09:30:26.951Z,14.44
2022-10-02T09:33:42.466Z,14.60
2022-10-02T09:36:47.535Z,14.42
2022-10-02T09:40:06.259Z,14.61
2022-10-02T09:43:09.372Z,14.90
2022-10-02T09:46:06.706Z,15.31
2022-10-02T09:49:04.083Z,14.75
2022-10-02T09:52:03.887Z,14.00
2022-10-02T09:55:05.166Z,14.30
2022-10-02T09:58:17.323Z,14.39
2022-10-02T10:01:02.726Z,14.54
2022-10-02T10:03:47.402Z,15.04
2022-10-02T10:06:52.563Z,15.54
2022-10-02T10:10:07.308Z,14.87
2022-10-02T10:13:22.506Z,15.38
2022-10-02T10:16:23.794Z,15.90
2022-10-02T10:19:32.756Z,16.06
2022-10-02T10:22:27.562Z,15.40
2022-10-02T10:25:36.772Z,14.60
2022-10-02T10:28:37.857Z,15.17
2022-10-02T10:32:01.328Z,15.21
2022-10-02T10:34:59.336Z,15.79
2022-10-02T10:38:00.998Z,15.24
2022-10-02T10:40:38.012Z,15.55
2022-10-02T10:43:33.791Z,15.43
2022-10-02T10:46:37.552Z,14.89
2022-10-02T10:49:19.328Z,14.57
2022-10-02T10:51:53.844Z,14.86
2022-10-02T10:55:08.912Z,14.54
2022-10-02T10:57:51.894Z,15.05
2022-10-02T11:00:22.281Z,14.93
2022-10-02T11:02:57.699Z,15.24
2022-10-02T11:05:57.927Z,15.53
2022-10-02T11:09:01.071Z,16.13
2022-10-02T11:11:40.031Z,15.23
2022-10-02T11:14:21.801Z,14.47
2022-10-02T11:17:16.472Z,14.15
2022-10-02T11:20:00.178Z,14.16
2022-10-02T11:22:46.137Z,13.56
2022-10-02T11:25:26.879Z,13.65
2022-10-02T11:28:10.923Z,13.74
2022-10-02T11:30:54.937Z,13.72
2022-10-02T11:33:44.404Z,14.32
2022-10-02T11:36:41.555Z,13.78
2022-10-02T11:39:17.311Z,14.14
2022-10-02T11:42:06.617Z,13.55
2022-10-02T11:44:54.532Z,13.73
2022-10-02T11:47:56.556Z,13.99
2022-10-02T11:51:01.895Z,14.32
2022-10-02T11:53:49.069Z,14.16
2022-10-02T11:56:35.531Z,14.91
2022-10-02T11:59:22.963Z,15.57
2022-10-02T12:01:57.327Z,15.97
2022-10-02T12:04:41.820Z,15.57
2022-10-02T12:07:23.482Z,14.66
2022-10-02T12:10:29.373Z,14.91
2022-10-02T12:13:15.815Z,14.31
2022-10-02T12:15:56.167Z,14.84
2022-10-02T12:18:41.129Z,14.96
2022-10-02T12:21:41.959Z,15.43
2022-10-02T12:24:36.960Z,15.20
2022-10-02T12:27:14.009Z,15.00
2022-10-02T12:29:56.265Z,15.26
2022-10-02T12:32:49.639Z,14.85
2022-10-02T12:35:41.031Z,14.48
2022-10-02T12:38:20.173Z,14.66
2022-10-02T12:40:57.486Z,14.24
2022-10-02T12:44:00.677Z,14.13
2022-10-02T12:47:01.031Z,13.91
2022-10-02T12:49:45.501Z,13.47
2022-10-02T12:52:54.509Z,13.12
2022-10-02T12:55:53.581Z,12.84
2022-10-02T12:58:31.256Z,12.95
2022-10-02T13:01:36.604Z,12.83
2022-10-02T13:04:47.537Z,12.62
2022-10-02T13:07:52.048Z,12.54
2022-10-02T13:10:23.712Z,12.93
2022-10-02T13:13:06.751Z,13.45
2022-10-02T13:15:46.757Z,14.47
2022-10-02T13:18:43.229Z,14.97
2022-10-02T13:21:19.204Z,14.50
2022-10-02T13:23:56.640Z,13.98
2022-10-02T13:26:34.629Z,14.54
2022-10-02T13:29:29.840Z,14.50
2022-10-02T13:32:11.615Z,14.53
2022-10-02T13:34:51.680Z,13.42
2022-10-02T13:37:34.165Z,13.87
2022-10-02T13:40:20.878Z,14.06
2022-10-02T13:43:09.093Z,14.22
2022-10-02T13:45:44.137Z,13.41
2022-10-02T13:48:22.963Z,12.74
2022-10-02T13:51:00.238Z,12.72
2022-10-02T13:53:49.272Z,13.00
2022-10-02T13:56:32.895Z,13.07
2022-10-02T13:59:14.479Z,12.81
2022-10-02T14:01:53.489Z,12.67
2022-10-02T14:04:42.002Z,12.51
2022-10-02T14:07:29.347Z,12.74
2022-10-02T14:10:07.796Z,12.39
2022-10-02T14:12:47.906Z,12.79
2022-10-02T14:15:41.431Z,12.56
2022-10-02T14:18:40.049Z,12.57
2022-10-02T14:21:18.226Z,12.54
2022-10-02T14:24:03.988Z,12.57
2022-10-02T14:26:49.783Z,12.79
2022-10-02T14:29:32.540Z,12.74
2022-10-02T14:32:35.199Z,13.12
2022-10-02T14:35:30.960Z,12.95
2022-10-02T14:38:23.568Z,13.07
2022-10-02T14:40:54.007Z,13.27
2022-10-02T14:43:53.497Z,13.10
2022-10-02T14:46:35.917Z,13.03
2022-10-02T14:49:15.435Z,12.86
2022-10-02T14:52:07.880Z,12.84
2022-10-02T14:54:50.762Z,13.02
2022-10-02T14:57:36.392Z,12.97
2022-10-02T15:00:17.467Z,13.07
2022-10-02T15:03:24.968Z,13.02
2022-10-02T15:06:05.084Z,13.04
2022-10-02T15:08:36.709Z,12.97
2022-10-02T15:11:06.282Z,12.79
2022-10-02T15:13:44.109Z,12.84
2022-10-02T15:16:37.157Z,12.94
2022-10-02T15:19:15.336Z,12.72
2022-10-02T15:21:51.647Z,12.72
2022-10-02T15:24:31.202Z,12.60
2022-10-02T15:27:09.787Z,12.57
2022-10-02T15:29:50.301Z,12.51
2022-10-02T15:32:45.923Z,12.52
2022-10-02T15:35:29.172Z,12.44
2022-10-02T15:38:44.419Z,12.63
2022-10-02T15:41:38.734Z,12.55
2022-10-02T15:44:43.572Z,12.32
2022-10-02T15:47:25.437Z,12.34
2022-10-02T15:50:11.256Z,12.26
2022-10-02T15:52:48.239Z,12.18
2022-10-02T15:55:25.067Z,12.23
2022-10-02T15:58:11.628Z,12.29
2022-10-02T16:01:00.762Z,12.41
2022-10-02T16:03:35.056Z,12.29
2022-10-02T16:06:13.449Z,12.40
2022-10-02T16:09:14.253Z,12.25
2022-10-02T16:12:03.515Z,12.28
2022-10-02T16:14:42.087Z,12.30
2022-10-02T16:17:29.600Z,12.19
2022-10-02T16:20:25.679Z,12.32
2022-10-02T16:23:06.209Z,12.28
2022-10-02T16:25:53.323Z,12.36
2022-10-02T16:28:34.039Z,12.27
2022-10-02T16:31:18.330Z,12.34
2022-10-02T16:33:58.462Z,12.21
2022-10-02T16:36:32.913Z,12.29
2022-10-02T16:39:38.981Z,12.29
2022-10-02T16:42:21.055Z,12.37
2022-10-02T16:45:09.721Z,12.39
2022-10-02T16:47:48.536Z,12.31
2022-10-02T16:50:23.754Z,12.14
2022-10-02T16:52:57.440Z,12.35
2022-10-02T16:55:33.450Z,12.27
2022-10-02T16:58:11.999Z,12.12
2022-10-02T17:00:52.613Z,12.13
2022-10-02T17:03:28.265Z,12.59
2022-10-02T17:06:04.303Z,12.21
2022-10-02T17:08:39.331Z,12.23
2022-10-02T17:11:20.365Z,12.44
2022-10-02T17:14:06.187Z,12.54
2022-10-02T17:16:40.134Z,12.66
2022-10-02T17:19:21.251Z,12.68
2022-10-02T17:21:53.720Z,12.71
2022-10-02T17:24:32.544Z,12.99
2022-10-02T17:27:13.046Z,12.92
2022-10-02T17:29:47.901Z,12.98
2022-10-02T17:32:35.409Z,12.24
2022-10-02T17:35:03.137Z,12.61
2022-10-02T17:38:02.280Z,12.27
2022-10-02T17:40:36.906Z,12.28
2022-10-02T17:43:14.977Z,12.34
2022-10-02T17:45:48.886Z,12.20
2022-10-02T17:48:35.893Z,12.20
2022-10-02T17:51:47.131Z,13.04
2022-10-02T17:54:45.349Z,12.93
2022-10-02T17:57:30.984Z,12.68
2022-10-02T18:00:17.589Z,12.83
2022-10-02T18:03:16.720Z,12.27
2022-10-02T18:05:51.668Z,12.32
2022-10-02T18:08:42.859Z,12.50
2022-10-02T18:11:22.225Z,12.56
2022-10-02T18:14:03.939Z,12.63
2022-10-02T18:16:48.059Z,12.43
2022-10-02T18:19:37.811Z,12.46
2022-10-02T18:22:31.137Z,12.61
2022-10-02T18:25:21.044Z,12.36
2022-10-02T18:28:18.106Z,12.37
2022-10-02T18:30:50.047Z,12.47
2022-10-02T18:33:34.779Z,12.42
2022-10-02T18:36:18.839Z,12.39
2022-10-02T18:38:58.558Z,12.21
2022-10-02T18:41:53.742Z,12.18
2022-10-02T18:44:44.948Z,12.29
2022-10-02T18:47:26.282Z,12.40
2022-10-02T18:50:10.741Z,12.36
2022-10-02T18:52:53.745Z,12.23
2022-10-02T18:55:40.834Z,12.33
2022-10-02T18:58:22.547Z,12.26
2022-10-02T19:01:07.127Z,12.46
2022-10-02T19:03:51.641Z,12.43
2022-10-02T19:06:28.401Z,12.18
2022-10-02T19:09:12.163Z,12.15
2022-10-02T19:11:44.792Z,12.12
2022-10-02T19:14:15.687Z,11.98
2022-10-02T19:16:58.160Z,11.91
2022-10-02T19:19:25.820Z,11.91
2022-10-02T19:21:59.270Z,11.81
2022-10-02T19:24:29.947Z,11.86
2022-10-02T19:27:02.343Z,11.87
2022-10-02T19:29:36.708Z,11.95
2022-10-02T19:32:13.722Z,11.86
2022-10-02T19:34:43.915Z,11.86
2022-10-02T19:37:17.259Z,11.90
2022-10-02T19:39:51.911Z,11.90
2022-10-02T19:42:25.142Z,11.92
2022-10-02T19:44:56.797Z,11.92
2022-10-02T19:47:29.689Z,11.98
2022-10-02T19:50:00.914Z,12.18
2022-10-02T19:52:35.838Z,12.20
2022-10-02T19:55:16.250Z,12.23
2022-10-02T19:57:46.017Z,12.11
2022-10-02T20:00:17.655Z,12.03
2022-10-02T20:02:47.435Z,11.98
2022-10-02T20:05:23.310Z,11.88
2022-10-02T20:07:56.758Z,11.87
2022-10-02T20:10:32.624Z,11.82
2022-10-02T20:13:08.219Z,11.86
2022-10-02T20:16:00.093Z,11.80
2022-10-02T20:18:28.011Z,12.02
2022-10-02T20:21:02.609Z,11.87
2022-10-02T20:23:35.639Z,11.82
2022-10-02T20:26:08.812Z,11.73
2022-10-02T20:28:45.859Z,11.83
2022-10-02T20:31:18.746Z,11.98
2022-10-02T20:33:50.044Z,12.10
2022-10-02T20:36:21.470Z,11.89
2022-10-02T20:38:54.510Z,11.79
2022-10-02T20:41:27.289Z,11.78
2022-10-02T20:44:02.187Z,11.77
2022-10-02T20:46:59.801Z,11.57
2022-10-02T20:49:43.164Z,11.51
2022-10-02T20:52:35.174Z,11.56
2022-10-02T20:55:10.860Z,11.50
2022-10-02T20:58:01.951Z,11.58
2022-10-02T21:00:41.883Z,11.58
2022-10-02T21:03:31.845Z,11.43
2022-10-02T21:06:47.364Z,11.39
2022-10-02T21:09:38.693Z,11.44
2022-10-02T21:12:28.323Z,11.38
2022-10-02T21:15:21.073Z,11.23
2022-10-02T21:18:06.908Z,11.27
2022-10-02T21:20:58.351Z,11.27
2022-10-02T21:24:14.142Z,11.23
2022-10-02T21:27:26.977Z,11.31
2022-10-02T21:30:04.327Z,11.30
2022-10-02T21:32:42.775Z,11.31
2022-10-02T21:35:16.760Z,11.41
2022-10-02T21:38:00.861Z,11.31
2022-10-02T21:41:05.737Z,11.48
2022-10-02T21:44:04.683Z,11.53
2022-10-02T21:46:58.887Z,11.47
2022-10-02T21:49:54.301Z,11.40
2022-10-02T21:53:07.513Z,11.35
2022-10-02T21:56:00.670Z,11.35
2022-10-02T21:59:06.177Z,11.37
2022-10-02T22:02:07.711Z,11.52
2022-10-02T22:05:01.742Z,11.75
2022-10-02T22:07:36.404Z,11.64
2022-10-02T22:10:12.677Z,11.84
2022-10-02T22:12:53.916Z,11.99
2022-10-02T22:15:32.825Z,12.01
2022-10-02T22:18:05.940Z,11.73
2022-10-02T22:20:44.391Z,11.50
2022-10-02T22:23:27.979Z,11.20
2022-10-02T22:26:08.471Z,10.98
2022-10-02T22:28:43.839Z,10.99
2022-10-02T22:31:44.701Z,10.91
2022-10-02T22:34:28.328Z,10.93
2022-10-02T22:37:17.460Z,10.99
2022-10-02T22:39:53.054Z,10.92
2022-10-02T22:42:26.746Z,10.87
2022-10-02T22:45:00.601Z,10.87
2022-10-02T22:47:37.850Z,10.96
2022-10-02T22:50:12.446Z,10.97
2022-10-02T22:52:48.979Z,10.91
2022-10-02T22:55:22.485Z,10.86
2022-10-02T22:57:58.547Z,10.93
2022-10-02T23:00:29.163Z,10.90
2022-10-02T23:03:05.362Z,10.81
2022-10-02T23:05:40.355Z,10.80
2022-10-02T23:08:19.446Z,10.72
2022-10-02T23:10:52.433Z,10.79
2022-10-02T23:13:26.323Z,10.73
2022-10-02T23:16:00.971Z,10.61
2022-10-02T23:18:40.777Z,10.66
2022-10-02T23:21:30.367Z,10.62
2022-10-02T23:24:03.316Z,10.57
2022-10-02T23:26:36.664Z,10.66
2022-10-02T23:29:15.948Z,10.60
2022-10-02T23:31:53.846Z,10.58
2022-10-02T23:34:33.791Z,10.55
2022-10-02T23:37:10.857Z,10.60
2022-10-02T23:39:43.912Z,10.62
2022-10-02T23:42:16.620Z,10.44
2022-10-02T23:44:50.976Z,10.32
2022-10-02T23:47:27.026Z,10.29
2022-10-02T23:49:57.285Z,10.22
2022-10-02T23:52:46.117Z,10.22
2022-10-02T23:55:30.265Z,10.29
2022-10-02T23:58:13.668Z,10.35
